FMEP/ZSE METAR and TAF weather

Enter ICAO airport designator
Station Type Date Time Source
FMEP METAR 2022/11/27 09:00 UTC NOAA

FMEP 270900Z AUTO 16008KT 090V210 CAVOK 29/17 Q1013 NOSIG


Station Type Date Time Source
FMEP Decoded METAR 2022/11/27 09:00 UTC NOAA

Saint-Pierre, Reunion (FMEP) 21-20S 055-29E 53M
Nov 27, 2022 - 04:00 AM EST / 2022.11.27 0900 UTC
Wind: from the SSE (160 degrees) at 9 MPH (8 KT) (direction variable):0
Visibility: greater than 7 mile(s):0
Temperature: 84 F (29 C)
Dew Point: 62 F (17 C)
Relative Humidity: 48%
Pressure (altimeter): 29.91 in. Hg (1013 hPa)
ob: FMEP 270900Z AUTO 16008KT 090V210 CAVOK 29/17 Q1013 NOSIG
cycle: 9

Station Type Date Time Source
FMEP TAF 2020/08/08 06:00 UTC NOAA

TAF FMEP 080500Z 0806/0815 27010KT 9999 FEW030

Example: see airport list